createdAt,value
2018-12-26T00:00:50.705Z,-1.6
2018-12-26T00:01:57.920Z,-1.6
2018-12-26T00:03:05.120Z,-1.7
2018-12-26T00:04:12.322Z,-1.6
2018-12-26T00:05:19.408Z,-1.6
2018-12-26T00:06:26.871Z,-1.6
2018-12-26T00:07:34.072Z,-1.6
2018-12-26T00:08:41.272Z,-1.6
2018-12-26T00:09:48.461Z,-1.6
2018-12-26T00:10:55.384Z,-1.7
2018-12-26T00:12:02.575Z,-1.7
2018-12-26T00:13:09.773Z,-1.7
2018-12-26T00:14:16.974Z,-1.7
2018-12-26T00:15:24.171Z,-1.7
2018-12-26T00:16:31.094Z,-1.7
2018-12-26T00:17:38.285Z,-1.6
2018-12-26T00:19:00.124Z,-1.6
2018-12-26T00:20:07.505Z,-1.6
2018-12-26T00:21:14.704Z,-1.6
2018-12-26T00:22:21.903Z,-1.6
2018-12-26T00:23:28.831Z,-1.6
2018-12-26T00:24:36.026Z,-1.6
2018-12-26T00:25:42.953Z,-1.6
2018-12-26T00:26:50.153Z,-1.6
2018-12-26T00:27:57.347Z,-1.6
2018-12-26T00:29:04.544Z,-1.6
2018-12-26T00:30:11.459Z,-1.6
2018-12-26T00:31:18.653Z,-1.7
2018-12-26T00:32:25.849Z,-1.7
2018-12-26T00:33:33.041Z,-1.7
2018-12-26T00:34:40.235Z,-1.7
2018-12-26T00:35:47.153Z,-1.8
2018-12-26T00:36:54.078Z,-1.8
2018-12-26T00:38:01.005Z,-1.8
2018-12-26T00:39:08.198Z,-1.7
2018-12-26T00:40:15.391Z,-1.7
2018-12-26T00:41:22.587Z,-1.7
2018-12-26T00:42:29.785Z,-1.7
2018-12-26T00:43:36.985Z,-1.7
2018-12-26T00:44:43.912Z,-1.8
2018-12-26T00:45:51.109Z,-1.8
2018-12-26T00:46:58.027Z,-1.9
2018-12-26T00:48:05.217Z,-1.9
2018-12-26T00:49:12.487Z,-1.8
2018-12-26T00:50:19.679Z,-1.8
2018-12-26T00:51:26.599Z,-1.8
2018-12-26T00:52:33.792Z,-1.8
2018-12-26T00:53:40.989Z,-1.8
2018-12-26T00:54:48.181Z,-1.7
2018-12-26T00:55:55.374Z,-1.7
2018-12-26T00:57:02.569Z,-1.8
2018-12-26T00:58:09.762Z,-1.8
2018-12-26T00:59:16.677Z,-1.8
2018-12-26T01:00:23.878Z,-1.8
2018-12-26T01:01:31.070Z,-1.8
2018-12-26T01:02:38.263Z,-1.9
2018-12-26T01:03:45.551Z,-1.9
2018-12-26T01:04:52.758Z,-1.8
2018-12-26T01:05:59.978Z,-1.8
2018-12-26T01:07:07.176Z,-1.8
2018-12-26T01:08:14.365Z,-1.8
2018-12-26T01:09:21.557Z,-1.8
2018-12-26T01:10:28.758Z,-1.9
2018-12-26T01:11:35.952Z,-1.9
2018-12-26T01:12:43.138Z,-1.9
2018-12-26T01:13:50.331Z,-1.8
2018-12-26T01:14:57.525Z,-1.8
2018-12-26T01:16:04.498Z,-1.8
2018-12-26T01:17:11.690Z,-1.8
2018-12-26T01:18:18.882Z,-1.8
2018-12-26T01:19:26.073Z,-1.8
2018-12-26T01:20:33.271Z,-1.8
2018-12-26T01:21:40.200Z,-1.8
2018-12-26T01:22:47.123Z,-1.8
2018-12-26T01:23:54.315Z,-1.8
2018-12-26T01:25:01.508Z,-1.8
2018-12-26T01:26:08.703Z,-1.8
2018-12-26T01:27:15.896Z,-1.7
2018-12-26T01:28:23.173Z,-1.7
2018-12-26T01:29:30.092Z,-1.7
2018-12-26T01:30:37.286Z,-1.7
2018-12-26T01:31:44.486Z,-1.7
2018-12-26T01:32:51.680Z,-1.8
2018-12-26T01:33:58.327Z,-1.8
2018-12-26T01:35:05.521Z,-1.8
2018-12-26T01:36:12.543Z,-1.8
2018-12-26T01:37:19.469Z,-1.8
2018-12-26T01:38:26.118Z,-1.9
2018-12-26T01:39:33.376Z,-1.8
2018-12-26T01:40:40.272Z,-1.9
2018-12-26T01:41:47.465Z,-1.9
2018-12-26T01:42:54.663Z,-1.9
2018-12-26T01:44:01.843Z,-1.9
2018-12-26T01:45:09.085Z,-1.9
2018-12-26T01:46:16.282Z,-1.9
2018-12-26T01:47:22.935Z,-1.9
2018-12-26T01:48:29.853Z,-2
2018-12-26T01:49:37.050Z,-2
2018-12-26T01:50:43.969Z,-2
2018-12-26T01:51:51.163Z,-2.1
2018-12-26T01:52:58.351Z,-2
2018-12-26T01:54:05.545Z,-2
2018-12-26T01:55:12.738Z,-2.1
2018-12-26T01:56:28.394Z,-2.1
2018-12-26T01:57:35.581Z,-2.1
2018-12-26T01:58:42.503Z,-2.1
2018-12-26T01:59:49.702Z,-2.1
2018-12-26T02:00:56.892Z,-2.2
2018-12-26T02:02:04.088Z,-2.2
2018-12-26T02:03:11.283Z,-2.2
2018-12-26T02:04:18.484Z,-2.3
2018-12-26T02:05:25.684Z,-2.3
2018-12-26T02:06:32.888Z,-2.3
2018-12-26T02:07:40.086Z,-2.3
2018-12-26T02:08:46.999Z,-2.3
2018-12-26T02:09:53.918Z,-2.4
2018-12-26T02:11:01.107Z,-2.4
2018-12-26T02:12:08.302Z,-2.4
2018-12-26T02:13:15.493Z,-2.4
2018-12-26T02:14:22.682Z,-2.5
2018-12-26T02:15:29.607Z,-2.5
2018-12-26T02:16:36.535Z,-2.5
2018-12-26T02:17:43.459Z,-2.4
2018-12-26T02:18:50.648Z,-2.4
2018-12-26T02:19:57.839Z,-2.5
2018-12-26T02:21:05.033Z,-2.5
2018-12-26T02:22:12.224Z,-2.5
2018-12-26T02:23:19.141Z,-2.5
2018-12-26T02:24:26.338Z,-2.6
2018-12-26T02:25:33.531Z,-2.6
2018-12-26T02:26:40.726Z,-2.6
2018-12-26T02:27:47.957Z,-2.6
2018-12-26T02:28:54.645Z,-2.6
2018-12-26T02:30:01.838Z,-2.7
2018-12-26T02:31:09.025Z,-2.7
2018-12-26T02:32:16.224Z,-2.7
2018-12-26T02:33:23.412Z,-2.7
2018-12-26T02:34:30.604Z,-2.7
2018-12-26T02:35:37.793Z,-2.8
2018-12-26T02:36:44.989Z,-2.7
2018-12-26T02:37:52.189Z,-2.7
2018-12-26T02:38:59.382Z,-2.7
2018-12-26T02:40:06.575Z,-2.7
2018-12-26T02:41:13.770Z,-2.8
2018-12-26T02:42:20.696Z,-2.8
2018-12-26T02:43:27.895Z,-2.8
2018-12-26T02:44:35.091Z,-2.8
2018-12-26T02:45:42.282Z,-2.8
2018-12-26T02:46:49.478Z,-2.8
2018-12-26T02:47:56.673Z,-2.9
2018-12-26T02:49:03.590Z,-2.9
2018-12-26T02:50:10.791Z,-2.9
2018-12-26T02:51:17.984Z,-2.9
2018-12-26T02:52:25.338Z,-2.9
2018-12-26T02:53:32.252Z,-2.9
2018-12-26T02:54:39.445Z,-2.9
2018-12-26T02:55:46.639Z,-3
2018-12-26T02:56:53.566Z,-3
2018-12-26T02:58:00.755Z,-3
2018-12-26T02:59:07.944Z,-3
2018-12-26T03:00:15.137Z,-3
2018-12-26T03:01:22.327Z,-3.1
2018-12-26T03:02:29.519Z,-3.1
2018-12-26T03:03:36.448Z,-3.1
2018-12-26T03:04:43.357Z,-3.2
2018-12-26T03:05:50.546Z,-3.2
2018-12-26T03:06:57.739Z,-3.2
2018-12-26T03:08:04.930Z,-3.2
2018-12-26T03:09:12.121Z,-3.2
2018-12-26T03:10:19.039Z,-3.2
2018-12-26T03:11:25.969Z,-3.2
2018-12-26T03:12:33.250Z,-3.2
2018-12-26T03:13:40.440Z,-3.2
2018-12-26T03:14:47.632Z,-3.3
2018-12-26T03:15:54.826Z,-3.3
2018-12-26T03:17:02.032Z,-3.3
2018-12-26T03:18:09.222Z,-3.3
2018-12-26T03:19:16.149Z,-3.3
2018-12-26T03:20:23.338Z,-3.2
2018-12-26T03:21:30.274Z,-3.3
2018-12-26T03:22:37.466Z,-3.4
2018-12-26T03:23:44.659Z,-3.4
2018-12-26T03:24:51.849Z,-3.3
2018-12-26T03:25:59.038Z,-3.3
2018-12-26T03:27:06.233Z,-3.3
2018-12-26T03:28:13.143Z,-3.3
2018-12-26T03:29:20.336Z,-3.3
2018-12-26T03:30:27.553Z,-3.3
2018-12-26T03:31:34.732Z,-3.4
2018-12-26T03:32:41.647Z,-3.4
2018-12-26T03:33:48.569Z,-3.3
2018-12-26T03:34:55.768Z,-3.4
2018-12-26T03:36:02.958Z,-3.4
2018-12-26T03:37:10.152Z,-3.4
2018-12-26T03:38:17.065Z,-3.4
2018-12-26T03:39:24.263Z,-3.5
2018-12-26T03:40:31.450Z,-3.5
2018-12-26T03:41:38.362Z,-3.5
2018-12-26T03:42:45.634Z,-3.5
2018-12-26T03:43:52.555Z,-3.5
2018-12-26T03:44:59.206Z,-3.6
2018-12-26T03:46:06.126Z,-3.6
2018-12-26T03:47:13.336Z,-3.5
2018-12-26T03:48:20.251Z,-3.5
2018-12-26T03:49:27.145Z,-3.4
2018-12-26T03:50:34.338Z,-3.4
2018-12-26T03:51:41.531Z,-3.5
2018-12-26T03:52:48.723Z,-3.5
2018-12-26T03:53:55.918Z,-3.5
2018-12-26T03:55:02.845Z,-3.5
2018-12-26T03:56:09.757Z,-3.5
2018-12-26T03:57:16.952Z,-3.6
2018-12-26T03:58:23.877Z,-3.6
2018-12-26T03:59:31.068Z,-3.6
2018-12-26T04:00:38.261Z,-3.7
2018-12-26T04:01:44.909Z,-3.6
2018-12-26T04:02:51.829Z,-3.6
2018-12-26T04:03:59.027Z,-3.6
2018-12-26T04:05:06.216Z,-3.6
2018-12-26T04:06:13.428Z,-3.7
2018-12-26T04:07:20.618Z,-3.6
2018-12-26T04:08:27.807Z,-3.6
2018-12-26T04:09:35.004Z,-3.6
2018-12-26T04:10:41.914Z,-3.7
2018-12-26T04:11:49.121Z,-3.7
2018-12-26T04:12:56.035Z,-3.8
2018-12-26T04:14:03.239Z,-3.7
2018-12-26T04:15:10.431Z,-3.7
2018-12-26T04:16:17.353Z,-3.8
2018-12-26T04:17:24.550Z,-3.8
2018-12-26T04:18:31.439Z,-3.8
2018-12-26T04:19:38.368Z,-3.8
2018-12-26T04:20:45.557Z,-3.8
2018-12-26T04:21:52.746Z,-3.8
2018-12-26T04:22:59.939Z,-3.8
2018-12-26T04:24:06.855Z,-3.8
2018-12-26T04:25:14.052Z,-3.8
2018-12-26T04:26:20.977Z,-3.8
2018-12-26T04:27:28.174Z,-3.8
2018-12-26T04:28:35.521Z,-3.8
2018-12-26T04:29:42.710Z,-3.9
2018-12-26T04:30:49.987Z,-3.9
2018-12-26T04:31:57.172Z,-4
2018-12-26T04:33:04.375Z,-4
2018-12-26T04:34:11.566Z,-4
2018-12-26T04:35:18.495Z,-4
2018-12-26T04:36:25.692Z,-4
2018-12-26T04:37:32.889Z,-4
2018-12-26T04:38:40.074Z,-4
2018-12-26T04:39:46.994Z,-4
2018-12-26T04:40:53.641Z,-4
2018-12-26T04:42:00.842Z,-4
2018-12-26T04:43:08.031Z,-3.9
2018-12-26T04:44:15.229Z,-3.9
2018-12-26T04:45:22.415Z,-3.9
2018-12-26T04:46:29.603Z,-3.9
2018-12-26T04:47:36.527Z,-3.9
2018-12-26T04:48:43.528Z,-4
2018-12-26T04:49:50.722Z,-4
2018-12-26T04:50:57.922Z,-4.1
2018-12-26T04:52:04.849Z,-4.1
2018-12-26T04:53:12.031Z,-4.1
2018-12-26T04:54:18.945Z,-4.2
2018-12-26T04:55:26.139Z,-4.2
2018-12-26T04:56:33.335Z,-4.1
2018-12-26T04:57:40.250Z,-4.1
2018-12-26T04:58:47.174Z,-4.1
2018-12-26T04:59:54.370Z,-4.2
2018-12-26T05:01:01.576Z,-4.1
2018-12-26T05:02:08.495Z,-4.1
2018-12-26T05:03:15.685Z,-4.1
2018-12-26T05:04:22.606Z,-4.1
2018-12-26T05:05:29.522Z,-4.1
2018-12-26T05:06:36.711Z,-4.2
2018-12-26T05:07:43.636Z,-4.1
2018-12-26T05:08:50.831Z,-4.1
2018-12-26T05:09:58.023Z,-4
2018-12-26T05:11:05.223Z,-4
2018-12-26T05:12:11.869Z,-4.1
2018-12-26T05:13:19.063Z,-4.1
2018-12-26T05:14:26.268Z,-4.2
2018-12-26T05:15:33.445Z,-4.2
2018-12-26T05:16:40.639Z,-4.2
2018-12-26T05:17:47.830Z,-4.2
2018-12-26T05:18:55.561Z,-4.1
2018-12-26T05:20:02.761Z,-4.1
2018-12-26T05:21:09.954Z,-4.1
2018-12-26T05:22:17.148Z,-4.1
2018-12-26T05:23:24.067Z,-4.1
2018-12-26T05:24:30.718Z,-4.1
2018-12-26T05:25:37.909Z,-4.1
2018-12-26T05:26:45.106Z,-4.2
2018-12-26T05:27:52.027Z,-4.3
2018-12-26T05:28:59.224Z,-4.4
2018-12-26T05:30:06.427Z,-4.4
2018-12-26T05:31:13.614Z,-4.4
2018-12-26T05:32:20.536Z,-4.4
2018-12-26T05:33:27.735Z,-4.4
2018-12-26T05:34:34.930Z,-4.3
2018-12-26T05:35:41.600Z,-4.3
2018-12-26T05:36:48.787Z,-4.3
2018-12-26T05:37:55.700Z,-4.2
2018-12-26T05:39:02.617Z,-4.2
2018-12-26T05:40:09.812Z,-4.2
2018-12-26T05:41:16.462Z,-4.2
2018-12-26T05:42:23.652Z,-4.2
2018-12-26T05:43:30.868Z,-4.2
2018-12-26T05:44:37.793Z,-4.2
2018-12-26T05:45:44.990Z,-4.3
2018-12-26T05:46:52.175Z,-4.4
2018-12-26T05:47:59.372Z,-4.4
2018-12-26T05:49:06.575Z,-4.4
2018-12-26T05:50:13.495Z,-4.4
2018-12-26T05:51:20.689Z,-4.4
2018-12-26T05:52:27.884Z,-4.4
2018-12-26T05:53:35.081Z,-4.4
2018-12-26T05:54:42.275Z,-4.4
2018-12-26T05:55:49.193Z,-4.3
2018-12-26T05:56:56.394Z,-4.4
2018-12-26T05:58:03.310Z,-4.4
2018-12-26T05:59:10.260Z,-4.4
2018-12-26T06:00:17.446Z,-4.5
2018-12-26T06:01:24.637Z,-4.5
2018-12-26T06:02:31.829Z,-4.5
2018-12-26T06:03:38.758Z,-4.6
2018-12-26T06:04:45.949Z,-4.6
2018-12-26T06:05:53.142Z,-4.6
2018-12-26T06:07:00.330Z,-4.6
2018-12-26T06:08:07.517Z,-4.5
2018-12-26T06:09:14.710Z,-4.4
2018-12-26T06:10:21.900Z,-4.4
2018-12-26T06:11:29.092Z,-4.4
2018-12-26T06:12:36.010Z,-4.4
2018-12-26T06:13:42.939Z,-4.4
2018-12-26T06:14:50.147Z,-4.4
2018-12-26T06:15:57.342Z,-4.3
2018-12-26T06:17:04.258Z,-4.3
2018-12-26T06:18:11.176Z,-4.2
2018-12-26T06:19:18.091Z,-4.2
2018-12-26T06:20:25.006Z,-4.1
2018-12-26T06:21:32.198Z,-4.1
2018-12-26T06:22:39.111Z,-4.2
2018-12-26T06:23:46.303Z,-4.3
2018-12-26T06:24:53.498Z,-4.4
2018-12-26T06:26:00.688Z,-4.4
2018-12-26T06:27:07.876Z,-4.3
2018-12-26T06:28:15.074Z,-4.2
2018-12-26T06:29:22.364Z,-4
2018-12-26T06:30:29.543Z,-3.9
2018-12-26T06:31:36.738Z,-3.9
2018-12-26T06:32:43.646Z,-3.9
2018-12-26T06:33:50.846Z,-3.9
2018-12-26T06:34:58.032Z,-4
2018-12-26T06:36:04.951Z,-4
2018-12-26T06:37:12.136Z,-4
2018-12-26T06:38:19.326Z,-4
2018-12-26T06:39:26.519Z,-4
2018-12-26T06:40:33.723Z,-4.1
2018-12-26T06:41:40.906Z,-4.1
2018-12-26T06:42:47.820Z,-4.1
2018-12-26T06:43:55.031Z,-4
2018-12-26T06:45:01.954Z,-3.8
2018-12-26T06:46:08.866Z,-3.7
2018-12-26T06:47:16.061Z,-3.7
2018-12-26T06:48:22.979Z,-3.7
2018-12-26T06:49:30.171Z,-3.7
2018-12-26T06:50:37.358Z,-3.7
2018-12-26T06:51:44.278Z,-3.8
2018-12-26T06:52:51.475Z,-3.9
2018-12-26T06:53:58.659Z,-3.9
2018-12-26T06:55:05.862Z,-4
2018-12-26T06:56:13.041Z,-4.1
2018-12-26T06:57:20.234Z,-4.2
2018-12-26T06:58:27.432Z,-4.3
2018-12-26T06:59:34.623Z,-4.3
2018-12-26T07:00:41.813Z,-4.3
2018-12-26T07:01:49.006Z,-4.3
2018-12-26T07:02:55.655Z,-4.3
2018-12-26T07:04:02.924Z,-4.3
2018-12-26T07:05:10.117Z,-4.3
2018-12-26T07:06:17.317Z,-4.2
2018-12-26T07:07:24.502Z,-4.2
2018-12-26T07:08:31.702Z,-4.3
2018-12-26T07:09:38.895Z,-4.4
2018-12-26T07:10:45.825Z,-4.4
2018-12-26T07:11:53.012Z,-4.5
2018-12-26T07:13:00.207Z,-4.4
2018-12-26T07:14:07.122Z,-4.4
2018-12-26T07:15:14.315Z,-4.4
2018-12-26T07:16:21.608Z,-4.4
2018-12-26T07:17:28.793Z,-4.3
2018-12-26T07:18:35.427Z,-4.4
2018-12-26T07:19:42.685Z,-4.5
2018-12-26T07:20:49.876Z,-4.5
2018-12-26T07:21:56.790Z,-4.5
2018-12-26T07:23:03.710Z,-4.5
2018-12-26T07:24:10.943Z,-4.5
2018-12-26T07:25:18.135Z,-4.4
2018-12-26T07:26:25.051Z,-4.4
2018-12-26T07:27:31.970Z,-4.4
2018-12-26T07:28:39.164Z,-4.3
2018-12-26T07:29:46.353Z,-4.4
2018-12-26T07:30:53.548Z,-4.4
2018-12-26T07:32:00.740Z,-4.4
2018-12-26T07:33:07.661Z,-4.5
2018-12-26T07:34:14.587Z,-4.5
2018-12-26T07:35:21.773Z,-4.5
2018-12-26T07:36:29.168Z,-4.5
2018-12-26T07:37:36.365Z,-4.5
2018-12-26T07:38:43.557Z,-4.4
2018-12-26T07:39:50.752Z,-4.4
2018-12-26T07:40:57.946Z,-4.4
2018-12-26T07:42:05.134Z,-4.4
2018-12-26T07:43:12.330Z,-4.4
2018-12-26T07:44:19.531Z,-4.4
2018-12-26T07:45:26.725Z,-4.3
2018-12-26T07:46:33.917Z,-4.3
2018-12-26T07:47:40.832Z,-4.2
2018-12-26T07:48:48.022Z,-4.1
2018-12-26T07:49:54.940Z,-4.1
2018-12-26T07:51:01.864Z,-4.2
2018-12-26T07:52:09.051Z,-4.2
2018-12-26T07:53:16.242Z,-4.2
2018-12-26T07:54:23.435Z,-4.1
2018-12-26T07:55:30.620Z,-4.1
2018-12-26T07:56:37.811Z,-4.1
2018-12-26T07:57:45.006Z,-4
2018-12-26T07:58:52.198Z,-4
2018-12-26T07:59:59.126Z,-3.9
2018-12-26T08:01:06.392Z,-3.8
2018-12-26T08:02:13.593Z,-3.8
2018-12-26T08:03:20.996Z,-3.6
2018-12-26T08:04:28.272Z,-3.6
2018-12-26T08:05:35.467Z,-3.5
2018-12-26T08:06:42.661Z,-3.5
2018-12-26T08:07:49.577Z,-3.4
2018-12-26T08:08:56.777Z,-3.4
2018-12-26T08:10:03.965Z,-3.4
2018-12-26T08:11:11.157Z,-3.5
2018-12-26T08:12:18.361Z,-3.5
2018-12-26T08:13:25.283Z,-3.5
2018-12-26T08:14:32.478Z,-3.5
2018-12-26T08:15:39.679Z,-3.5
2018-12-26T08:16:46.603Z,-3.5
2018-12-26T08:17:53.793Z,-3.4
2018-12-26T08:19:00.988Z,-3.2
2018-12-26T08:20:08.188Z,-3.2
2018-12-26T08:21:14.821Z,-3.1
2018-12-26T08:22:22.010Z,-3
2018-12-26T08:23:28.932Z,-3
2018-12-26T08:24:36.127Z,-2.9
2018-12-26T08:25:43.054Z,-2.8
2018-12-26T08:26:50.245Z,-2.8
2018-12-26T08:27:57.169Z,-2.7
2018-12-26T08:29:04.362Z,-2.6
2018-12-26T08:30:11.555Z,-2.6
2018-12-26T08:31:18.745Z,-2.5
2018-12-26T08:32:25.938Z,-2.4
2018-12-26T08:33:33.181Z,-2.4
2018-12-26T08:34:40.375Z,-2.3
2018-12-26T08:35:47.378Z,-2.2
2018-12-26T08:36:54.566Z,-2.2
2018-12-26T08:38:01.487Z,-2.2
2018-12-26T08:39:08.718Z,-2.2
2018-12-26T08:40:15.913Z,-2.2
2018-12-26T08:41:23.103Z,-2.2
2018-12-26T08:42:30.297Z,-2.2
2018-12-26T08:43:36.701Z,-2.2
2018-12-26T08:44:43.893Z,-2.2
2018-12-26T08:45:51.094Z,-2.2
2018-12-26T08:46:58.602Z,-2.1
2018-12-26T08:48:05.779Z,-2.1
2018-12-26T08:49:12.974Z,-2
2018-12-26T08:50:20.180Z,-2
2018-12-26T08:51:27.375Z,-2
2018-12-26T08:52:34.566Z,-2.1
2018-12-26T08:53:41.489Z,-2.1
2018-12-26T08:54:48.682Z,-2.1
2018-12-26T08:55:55.878Z,-2.1
2018-12-26T08:57:03.070Z,-2.1
2018-12-26T08:58:10.256Z,-2.1
2018-12-26T08:59:17.445Z,-2.1
2018-12-26T09:00:24.639Z,-2.1
2018-12-26T09:01:31.826Z,-2.1
2018-12-26T09:02:39.018Z,-2
2018-12-26T09:03:46.220Z,-2
2018-12-26T09:04:53.142Z,-2
2018-12-26T09:06:00.338Z,-1.9
2018-12-26T09:07:07.538Z,-1.8
2018-12-26T09:08:14.740Z,-1.8
2018-12-26T09:09:21.663Z,-1.7
2018-12-26T09:10:28.853Z,-1.7
2018-12-26T09:11:36.039Z,-1.7
2018-12-26T09:12:43.237Z,-1.7
2018-12-26T09:13:50.429Z,-1.7
2018-12-26T09:14:57.631Z,-1.7
2018-12-26T09:16:04.828Z,-1.6
2018-12-26T09:17:11.745Z,-1.6
2018-12-26T09:18:18.944Z,-1.6
2018-12-26T09:19:26.151Z,-1.6
2018-12-26T09:20:32.794Z,-1.6
2018-12-26T09:21:39.990Z,-1.5
2018-12-26T09:22:47.183Z,-1.5
2018-12-26T09:23:54.129Z,-1.4
2018-12-26T09:25:01.085Z,-1.4
2018-12-26T09:26:08.281Z,-1.3
2018-12-26T09:27:15.193Z,-1.3
2018-12-26T09:28:22.384Z,-1.3
2018-12-26T09:29:29.576Z,-1.3
2018-12-26T09:30:36.775Z,-1.3
2018-12-26T09:31:43.967Z,-1.3
2018-12-26T09:32:50.615Z,-1.3
2018-12-26T09:33:57.825Z,-1.3
2018-12-26T09:35:05.013Z,-1.3
2018-12-26T09:36:12.213Z,-1.3
2018-12-26T09:37:19.452Z,-1.3
2018-12-26T09:38:26.653Z,-1.3
2018-12-26T09:39:33.579Z,-1.2
2018-12-26T09:40:40.511Z,-1.1
2018-12-26T09:41:47.704Z,-1
2018-12-26T09:42:54.896Z,-0.8
2018-12-26T09:44:04.250Z,-0.8
2018-12-26T09:45:11.439Z,-0.8
2018-12-26T09:46:18.634Z,-0.8
2018-12-26T09:47:25.830Z,-0.8
2018-12-26T09:48:32.754Z,-0.8
2018-12-26T09:49:39.950Z,-0.8
2018-12-26T09:50:47.138Z,-0.8
2018-12-26T09:51:54.057Z,-0.8
2018-12-26T09:53:01.250Z,-0.8
2018-12-26T09:54:08.445Z,-0.9
2018-12-26T09:55:15.366Z,-0.9
2018-12-26T09:56:22.642Z,-0.9
2018-12-26T09:57:29.835Z,-0.9
2018-12-26T09:58:37.031Z,-0.8
2018-12-26T09:59:44.221Z,-0.9
2018-12-26T10:00:51.419Z,-0.8
2018-12-26T10:01:58.344Z,-0.8
2018-12-26T10:03:05.539Z,-0.8
2018-12-26T10:04:12.730Z,-0.8
2018-12-26T10:05:19.926Z,-0.8
2018-12-26T10:06:27.123Z,-0.7
2018-12-26T10:07:34.043Z,-0.7
2018-12-26T10:08:43.349Z,-0.6
2018-12-26T10:09:50.558Z,-0.6
2018-12-26T10:10:57.751Z,-0.5
2018-12-26T10:12:04.677Z,-0.4
2018-12-26T10:13:11.873Z,-0.3
2018-12-26T10:14:19.075Z,-0.2
2018-12-26T10:15:26.270Z,-0.1
2018-12-26T10:16:33.467Z,0
2018-12-26T10:17:40.665Z,0
2018-12-26T10:18:47.862Z,0.1
2018-12-26T10:19:55.060Z,0.2
2018-12-26T10:21:01.714Z,0.3
2018-12-26T10:22:08.366Z,0.3
2018-12-26T10:23:15.558Z,0.2
2018-12-26T10:24:22.750Z,0.1
2018-12-26T10:25:29.950Z,0.1
2018-12-26T10:26:37.243Z,0.1
2018-12-26T10:27:44.443Z,0.1
2018-12-26T10:28:51.365Z,0.1
2018-12-26T10:29:58.278Z,0.1
2018-12-26T10:31:05.472Z,0.1
2018-12-26T10:32:12.694Z,0.1
2018-12-26T10:33:19.891Z,0.1
2018-12-26T10:34:27.086Z,0.1
2018-12-26T10:35:34.280Z,0.1
2018-12-26T10:36:41.473Z,0.1
2018-12-26T10:37:48.392Z,0.1
2018-12-26T10:38:55.592Z,0.1
2018-12-26T10:40:02.792Z,0.1
2018-12-26T10:41:10.090Z,0.2
2018-12-26T10:42:17.278Z,0.2
2018-12-26T10:43:24.479Z,0.1
2018-12-26T10:44:31.671Z,0.1
2018-12-26T10:45:38.864Z,0.1
2018-12-26T10:46:45.786Z,0
2018-12-26T10:47:52.705Z,0
2018-12-26T10:48:59.929Z,0.1
2018-12-26T10:50:07.137Z,0.1
2018-12-26T10:51:14.330Z,0.2
2018-12-26T10:52:21.526Z,0.2
2018-12-26T10:53:28.450Z,0.2
2018-12-26T10:54:35.380Z,0.2
2018-12-26T10:55:42.575Z,0.2
2018-12-26T10:56:49.768Z,0.2
2018-12-26T10:57:56.413Z,0.3
2018-12-26T10:59:10.760Z,0.3
2018-12-26T11:00:17.961Z,0.3
2018-12-26T11:01:25.162Z,0.3
2018-12-26T11:02:32.574Z,0.3
2018-12-26T11:03:39.766Z,0.4
2018-12-26T11:04:46.426Z,0.3
2018-12-26T11:05:55.388Z,0.4
2018-12-26T11:07:02.634Z,0.4
2018-12-26T11:08:09.554Z,0.4
2018-12-26T11:09:16.746Z,0.4
2018-12-26T11:10:23.669Z,0.3
2018-12-26T11:11:30.328Z,0.4
2018-12-26T11:12:37.529Z,0.4
2018-12-26T11:13:44.448Z,0.6
2018-12-26T11:14:51.644Z,0.7
2018-12-26T11:15:58.577Z,0.7
2018-12-26T11:17:05.778Z,0.8
2018-12-26T11:18:13.044Z,0.8
2018-12-26T11:19:19.971Z,0.7
2018-12-26T11:20:26.895Z,0.7
2018-12-26T11:21:33.823Z,0.6
2018-12-26T11:22:41.040Z,0.5
2018-12-26T11:23:48.233Z,0.4
2018-12-26T11:24:55.435Z,0.4
2018-12-26T11:26:02.634Z,0.5
2018-12-26T11:27:09.833Z,0.5
2018-12-26T11:28:17.029Z,0.5
2018-12-26T11:29:24.229Z,0.5
2018-12-26T11:30:31.421Z,0.3
2018-12-26T11:31:38.643Z,0.4
2018-12-26T11:32:45.847Z,0.4
2018-12-26T11:33:53.046Z,0.5
2018-12-26T11:35:00.275Z,0.5
2018-12-26T11:36:07.541Z,0.6
2018-12-26T11:37:14.533Z,0.6
2018-12-26T11:38:21.733Z,0.7
2018-12-26T11:39:28.951Z,0.7
2018-12-26T11:40:36.148Z,0.7
2018-12-26T11:41:43.344Z,0.8
2018-12-26T11:42:50.543Z,0.8
2018-12-26T11:43:57.740Z,0.8
2018-12-26T11:45:04.665Z,0.8
2018-12-26T11:46:11.860Z,0.8
2018-12-26T11:47:18.781Z,0.9
2018-12-26T11:48:25.984Z,0.8
2018-12-26T11:49:33.188Z,0.8
2018-12-26T11:50:40.113Z,0.8
2018-12-26T11:51:47.038Z,0.8
2018-12-26T11:52:54.234Z,0.7
2018-12-26T11:54:01.430Z,0.7
2018-12-26T11:55:08.074Z,0.8
2018-12-26T11:56:15.278Z,0.8
2018-12-26T11:57:22.477Z,0.8
2018-12-26T11:58:29.761Z,0.9
2018-12-26T11:59:36.422Z,0.9
2018-12-26T12:00:43.619Z,0.9
2018-12-26T12:01:50.812Z,0.9
2018-12-26T12:02:58.009Z,1
2018-12-26T12:04:05.204Z,1
2018-12-26T12:05:12.412Z,1
2018-12-26T12:06:19.325Z,1.1
2018-12-26T12:07:26.523Z,1.2
2018-12-26T12:08:33.724Z,1.3
2018-12-26T12:09:40.921Z,1.4
2018-12-26T12:10:50.101Z,1.1
2018-12-26T12:11:57.416Z,1.1
2018-12-26T12:13:04.356Z,1
2018-12-26T12:14:11.554Z,1.1
2018-12-26T12:15:18.490Z,1.1
2018-12-26T12:16:25.684Z,1.1
2018-12-26T12:17:32.611Z,1.1
2018-12-26T12:18:39.806Z,1.1
2018-12-26T12:19:46.454Z,1.1
2018-12-26T12:20:53.654Z,1.1
2018-12-26T12:22:00.574Z,1.2
2018-12-26T12:23:07.829Z,1.3
2018-12-26T12:24:14.750Z,1.4
2018-12-26T12:25:21.946Z,1.4
2018-12-26T12:26:29.142Z,1.5
2018-12-26T12:27:36.339Z,1.5
2018-12-26T12:28:43.534Z,1.5
2018-12-26T12:29:50.459Z,1.5
2018-12-26T12:30:57.652Z,1.5
2018-12-26T12:32:04.848Z,1.4
2018-12-26T12:33:12.041Z,1.5
2018-12-26T12:34:19.237Z,1.5
2018-12-26T12:35:26.438Z,1.5
2018-12-26T12:36:33.629Z,1.5
2018-12-26T12:37:40.825Z,1.4
2018-12-26T12:38:48.176Z,1.4
2018-12-26T12:39:55.368Z,1.4
2018-12-26T12:41:02.292Z,1.5
2018-12-26T12:42:09.486Z,1.5
2018-12-26T12:43:16.686Z,1.5
2018-12-26T12:44:23.613Z,1.6
2018-12-26T12:45:30.809Z,1.5
2018-12-26T12:46:38.006Z,1.5
2018-12-26T12:47:45.202Z,1.4
2018-12-26T12:48:52.402Z,1.3
2018-12-26T12:49:59.323Z,1.3
2018-12-26T12:51:06.519Z,1.3
2018-12-26T12:52:13.439Z,1.3
2018-12-26T12:53:20.632Z,1.3
2018-12-26T12:54:27.837Z,1.3
2018-12-26T12:55:35.028Z,1.2
2018-12-26T12:56:42.222Z,1.2
2018-12-26T12:57:49.417Z,1.3
2018-12-26T12:58:56.619Z,1.3
2018-12-26T13:00:03.807Z,1.3
2018-12-26T13:01:10.733Z,1.4
2018-12-26T13:02:18.282Z,1.5
2018-12-26T13:03:25.198Z,1.6
2018-12-26T13:04:32.132Z,1.5
2018-12-26T13:05:39.330Z,1.4
2018-12-26T13:06:46.526Z,1.3
2018-12-26T13:07:53.730Z,1.3
2018-12-26T13:09:00.918Z,1.3
2018-12-26T13:10:08.110Z,1.3
2018-12-26T13:11:15.032Z,1.2
2018-12-26T13:12:22.226Z,1.2
2018-12-26T13:13:29.147Z,1.2
2018-12-26T13:14:38.265Z,1.3
2018-12-26T13:15:45.490Z,1.4
2018-12-26T13:16:52.690Z,1.4
2018-12-26T13:17:59.889Z,1.5
2018-12-26T13:19:07.118Z,1.4
2018-12-26T13:20:14.032Z,1.4
2018-12-26T13:21:20.958Z,1.3
2018-12-26T13:22:27.885Z,1.3
2018-12-26T13:23:35.080Z,1.3
2018-12-26T13:24:42.370Z,1.4
2018-12-26T13:25:49.570Z,1.4
2018-12-26T13:26:56.765Z,1.3
2018-12-26T13:28:03.958Z,1.3
2018-12-26T13:29:10.611Z,1.3
2018-12-26T13:30:17.833Z,1.3
2018-12-26T13:31:25.039Z,1.3
2018-12-26T13:32:32.241Z,1.4
2018-12-26T13:33:39.169Z,1.4
2018-12-26T13:34:46.369Z,1.4
2018-12-26T13:35:53.566Z,1.4
2018-12-26T13:37:00.767Z,1.4
2018-12-26T13:38:07.959Z,1.5
2018-12-26T13:39:14.883Z,1.5
2018-12-26T13:40:22.075Z,1.6
2018-12-26T13:41:29.267Z,1.6
2018-12-26T13:42:36.460Z,1.7
2018-12-26T13:43:43.657Z,1.7
2018-12-26T13:44:50.849Z,1.7
2018-12-26T13:45:58.052Z,1.7
2018-12-26T13:47:05.240Z,1.7
2018-12-26T13:48:12.435Z,1.7
2018-12-26T13:49:19.352Z,1.6
2018-12-26T13:50:26.547Z,1.6
2018-12-26T23:00:05.749Z,0.9
2018-12-26T23:01:12.976Z,0.9
2018-12-26T23:02:20.177Z,0.9
2018-12-26T23:03:27.120Z,0.9
2018-12-26T23:04:34.339Z,0.9
2018-12-26T23:05:41.552Z,0.9
2018-12-26T23:06:48.756Z,0.9
2018-12-26T23:07:55.970Z,0.9
2018-12-26T23:09:03.173Z,0.9
2018-12-26T23:10:10.124Z,0.9
2018-12-26T23:11:17.329Z,0.9
2018-12-26T23:12:24.528Z,0.9
2018-12-26T23:13:31.984Z,0.9
2018-12-26T23:14:39.193Z,0.9
2018-12-26T23:15:46.128Z,0.9
2018-12-26T23:16:53.338Z,0.9
2018-12-26T23:18:00.548Z,0.9
2018-12-26T23:19:07.775Z,0.9
2018-12-26T23:20:14.987Z,0.9
2018-12-26T23:21:21.917Z,0.9
2018-12-26T23:22:29.133Z,0.8
2018-12-26T23:23:36.337Z,0.9
2018-12-26T23:24:43.546Z,0.9
2018-12-26T23:25:50.744Z,0.9
2018-12-26T23:26:57.956Z,0.8
2018-12-26T23:28:05.152Z,0.9
2018-12-26T23:29:12.084Z,0.8
2018-12-26T23:30:19.284Z,0.8
2018-12-26T23:31:26.477Z,0.8
2018-12-26T23:32:33.405Z,0.8
2018-12-26T23:33:40.610Z,0.9
2018-12-26T23:34:47.511Z,0.9
2018-12-26T23:35:54.716Z,0.8
2018-12-26T23:37:01.648Z,0.8
2018-12-26T23:38:08.844Z,0.8
2018-12-26T23:39:16.064Z,0.8
2018-12-26T23:40:23.277Z,0.8
2018-12-26T23:41:30.669Z,0.8
2018-12-26T23:42:37.860Z,0.8
2018-12-26T23:43:45.065Z,0.8
2018-12-26T23:44:52.263Z,0.8
2018-12-26T23:45:59.528Z,0.8
2018-12-26T23:47:06.723Z,0.8
2018-12-26T23:48:13.652Z,0.8
2018-12-26T23:49:20.853Z,0.8
2018-12-26T23:50:28.049Z,0.8
2018-12-26T23:51:34.973Z,0.8
2018-12-26T23:52:42.172Z,0.8
2018-12-26T23:53:49.368Z,0.8
2018-12-26T23:54:56.578Z,0.7
2018-12-26T23:56:03.778Z,0.8
2018-12-26T23:57:10.974Z,0.7
2018-12-26T23:58:18.168Z,0.8
2018-12-26T23:59:25.379Z,0.8
